Aviation Digital Data Service (ADDS)

Output produced by METARs form (0852 UTC 18 October 2018)
found at http://www.aviationweather.gov/metar/data/
 
DRRN 180800Z 26008KT CAVOK 31/20 Q1011 NOSIG
TAF DRRN 180500Z 1806/1912 22008KT CAVOK 
     PROB40 
     TEMPO 1816/1822 VRB25KT 2000 BLDU -TSRA SCT030 FEW033CB
       
DRZA 180800Z 12008KT CAVOK 32/09 Q1014
TAF DRZA 180500Z 1806/1906 12010KT CAVOK 
     PROB30 1808/1813 14020KT 4500 BLDU
       
DRRM 180800Z 26006KT CAVOK 30/23 Q1012
DRRT 180800Z 22004KT CAVOK 31/19 Q1012
DRZR 180800Z 32004KT CAVOK 30/12 Q1013
TAF DRZR 180500Z 1806/1906 10008KT CAVOK